createdAt,value
2018-04-26T00:00:32.409Z,0.00
2018-04-26T00:01:32.573Z,0.00
2018-04-26T00:02:32.732Z,0.00
2018-04-26T00:03:53.890Z,0.00
2018-04-26T00:04:33.052Z,0.00
2018-04-26T00:05:33.217Z,0.00
2018-04-26T00:06:33.377Z,0.00
2018-04-26T00:07:33.537Z,0.00
2018-04-26T00:08:33.709Z,0.00
2018-04-26T00:09:33.873Z,0.00
2018-04-26T00:10:34.036Z,0.00
2018-04-26T00:11:34.199Z,0.00
2018-04-26T00:12:34.367Z,0.00
2018-04-26T00:13:34.533Z,0.00
2018-04-26T00:14:34.703Z,0.00
2018-04-26T00:15:34.867Z,0.00
2018-04-26T00:16:35.029Z,0.00
2018-04-26T00:17:35.202Z,0.00
2018-04-26T00:18:35.368Z,0.00
2018-04-26T00:19:35.530Z,0.00
2018-04-26T00:20:35.706Z,0.00
2018-04-26T00:21:35.884Z,0.00
2018-04-26T00:22:36.037Z,0.00
2018-04-26T00:23:36.207Z,0.00
2018-04-26T00:24:36.372Z,0.00
2018-04-26T00:25:36.534Z,0.00
2018-04-26T00:26:36.708Z,0.00
2018-04-26T00:27:36.875Z,0.00
2018-04-26T00:28:37.045Z,0.00
2018-04-26T00:29:37.206Z,0.00
2018-04-26T00:30:37.366Z,0.00
2018-04-26T00:31:37.537Z,0.00
2018-04-26T00:32:37.697Z,0.00
2018-04-26T00:33:37.871Z,0.00
2018-04-26T00:34:38.037Z,0.00
2018-04-26T00:35:38.209Z,0.00
2018-04-26T00:36:38.375Z,0.00
2018-04-26T00:37:38.543Z,0.00
2018-04-26T00:38:38.704Z,0.00
2018-04-26T00:39:38.870Z,0.00
2018-04-26T00:40:39.032Z,0.00
2018-04-26T00:41:39.206Z,0.00
2018-04-26T00:42:39.381Z,0.00
2018-04-26T00:43:39.543Z,0.00
2018-04-26T00:44:39.711Z,0.00
2018-04-26T00:45:39.876Z,0.00
2018-04-26T00:46:40.043Z,0.00
2018-04-26T00:47:40.206Z,0.00
2018-04-26T00:48:40.456Z,0.00
2018-04-26T00:49:40.551Z,0.00
2018-04-26T00:50:40.718Z,0.00
2018-04-26T00:51:40.879Z,0.00
2018-04-26T00:52:41.051Z,0.00
2018-04-26T00:53:41.221Z,0.00
2018-04-26T00:54:41.383Z,0.00
2018-04-26T00:55:41.548Z,0.00
2018-04-26T00:56:41.712Z,0.00
2018-04-26T00:57:41.885Z,0.00
2018-04-26T00:58:42.038Z,0.00
2018-04-26T00:59:42.211Z,0.00
2018-04-26T01:00:42.374Z,0.00
2018-04-26T01:01:42.536Z,0.00
2018-04-26T01:02:42.706Z,0.00
2018-04-26T01:03:42.867Z,0.00
2018-04-26T01:04:43.039Z,0.00
2018-04-26T01:05:43.207Z,0.00
2018-04-26T01:06:43.370Z,0.00
2018-04-26T01:07:43.536Z,0.00
2018-04-26T01:08:43.699Z,0.00
2018-04-26T01:09:43.867Z,0.00
2018-04-26T01:10:44.033Z,0.00
2018-04-26T01:11:44.189Z,0.00
2018-04-26T01:12:44.360Z,0.00
2018-04-26T01:13:44.519Z,0.00
2018-04-26T01:14:44.686Z,0.00
2018-04-26T01:15:44.928Z,0.00
2018-04-26T01:16:45.022Z,0.00
2018-04-26T01:17:45.191Z,0.00
2018-04-26T01:18:45.356Z,0.00
2018-04-26T01:19:45.527Z,0.00
2018-04-26T01:20:45.692Z,0.00
2018-04-26T01:21:45.857Z,0.00
2018-04-26T01:22:46.028Z,0.00
2018-04-26T01:23:46.193Z,0.00
2018-04-26T01:24:46.366Z,0.00
2018-04-26T01:25:46.522Z,0.00
2018-04-26T01:26:46.692Z,0.00
2018-04-26T01:27:46.859Z,0.00
2018-04-26T01:28:47.016Z,0.00
2018-04-26T01:29:47.188Z,0.00
2018-04-26T01:30:47.360Z,0.00
2018-04-26T01:31:47.522Z,0.00
2018-04-26T01:32:47.688Z,0.00
2018-04-26T01:33:47.854Z,0.00
2018-04-26T01:34:48.020Z,0.00
2018-04-26T01:35:48.195Z,0.00
2018-04-26T01:36:48.361Z,0.00
2018-04-26T01:37:48.525Z,0.00
2018-04-26T01:38:48.692Z,0.00
2018-04-26T01:39:48.855Z,0.00
2018-04-26T01:40:49.027Z,0.00
2018-04-26T01:41:49.198Z,0.00
2018-04-26T01:42:49.351Z,0.00
2018-04-26T01:43:49.517Z,0.00
2018-04-26T01:44:49.678Z,0.00
2018-04-26T01:45:49.844Z,0.00
2018-04-26T01:46:50.019Z,0.00
2018-04-26T01:47:50.188Z,0.00
2018-04-26T01:48:50.358Z,0.00
2018-04-26T01:49:50.522Z,0.00
2018-04-26T01:50:50.688Z,0.00
2018-04-26T01:51:50.854Z,0.00
2018-04-26T01:52:51.021Z,0.00
2018-04-26T01:53:51.182Z,0.00
2018-04-26T01:54:51.349Z,0.00
2018-04-26T01:55:51.511Z,0.00
2018-04-26T01:56:51.679Z,0.00
2018-04-26T01:57:51.846Z,0.00
2018-04-26T01:58:52.007Z,0.00
2018-04-26T01:59:52.174Z,0.00
2018-04-26T02:00:52.340Z,0.00
2018-04-26T02:01:52.508Z,0.00
2018-04-26T02:02:52.677Z,0.00
2018-04-26T02:03:52.848Z,0.00
2018-04-26T02:04:53.011Z,0.00
2018-04-26T02:05:53.178Z,0.00
2018-04-26T02:06:53.345Z,0.00
2018-04-26T02:07:53.515Z,0.00
2018-04-26T02:08:53.674Z,0.00
2018-04-26T02:09:53.840Z,0.00
2018-04-26T02:10:54.001Z,0.00
2018-04-26T02:11:54.173Z,0.00
2018-04-26T02:12:54.329Z,0.00
2018-04-26T02:13:54.526Z,0.00
2018-04-26T02:14:54.689Z,0.00
2018-04-26T02:15:54.857Z,0.00
2018-04-26T02:16:55.021Z,0.00
2018-04-26T02:17:55.187Z,0.00
2018-04-26T02:18:55.360Z,0.00
2018-04-26T02:19:55.527Z,0.00
2018-04-26T02:20:55.687Z,0.00
2018-04-26T02:21:55.861Z,0.00
2018-04-26T02:22:56.029Z,0.00
2018-04-26T02:23:56.183Z,0.00
2018-04-26T02:24:56.347Z,0.00
2018-04-26T02:25:56.510Z,0.00
2018-04-26T02:26:56.676Z,0.00
2018-04-26T02:27:56.831Z,0.00
2018-04-26T02:28:56.993Z,0.00
2018-04-26T02:29:57.164Z,0.00
2018-04-26T02:30:57.325Z,0.00
2018-04-26T02:31:57.490Z,0.00
2018-04-26T02:32:57.659Z,0.00
2018-04-26T02:33:57.828Z,0.00
2018-04-26T02:34:57.996Z,0.00
2018-04-26T02:35:58.185Z,0.00
2018-04-26T02:36:58.317Z,0.00
2018-04-26T02:37:58.485Z,0.00
2018-04-26T02:38:58.650Z,0.00
2018-04-26T02:39:58.809Z,0.00
2018-04-26T02:40:58.976Z,0.00
2018-04-26T02:41:59.139Z,0.00
2018-04-26T02:42:59.308Z,0.00
2018-04-26T02:43:59.470Z,0.00
2018-04-26T02:44:59.632Z,0.00
2018-04-26T02:45:59.802Z,0.00
2018-04-26T02:46:59.965Z,0.00
2018-04-26T02:48:00.124Z,0.00
2018-04-26T02:49:00.297Z,0.00
2018-04-26T02:50:00.460Z,0.00
2018-04-26T02:51:00.627Z,0.00
2018-04-26T02:52:00.797Z,0.00
2018-04-26T02:53:00.958Z,0.00
2018-04-26T02:54:01.119Z,0.00
2018-04-26T02:55:01.284Z,0.00
2018-04-26T02:56:01.449Z,0.00
2018-04-26T02:57:01.619Z,0.00
2018-04-26T02:58:01.783Z,0.00
2018-04-26T02:59:01.951Z,0.00
2018-04-26T03:00:02.122Z,0.00
2018-04-26T03:01:02.288Z,0.00
2018-04-26T03:02:02.451Z,0.00
2018-04-26T03:03:02.614Z,0.00
2018-04-26T03:04:02.780Z,0.00
2018-04-26T03:05:02.941Z,0.00
2018-04-26T03:06:03.101Z,0.00
2018-04-26T03:07:03.265Z,0.00
2018-04-26T03:08:03.438Z,0.00
2018-04-26T03:09:03.595Z,0.00
2018-04-26T03:10:03.765Z,0.00
2018-04-26T03:11:03.929Z,0.00
2018-04-26T03:12:04.088Z,0.00
2018-04-26T03:13:04.255Z,0.00
2018-04-26T03:14:04.422Z,0.00
2018-04-26T03:15:04.589Z,0.00
2018-04-26T03:16:04.755Z,0.00
2018-04-26T03:17:04.915Z,0.00
2018-04-26T03:18:05.088Z,0.00
2018-04-26T03:19:05.249Z,0.00
2018-04-26T03:20:05.411Z,0.00
2018-04-26T03:21:05.579Z,0.00
2018-04-26T03:22:05.743Z,0.00
2018-04-26T03:23:05.901Z,0.00
2018-04-26T03:24:06.062Z,0.00
2018-04-26T03:25:06.223Z,0.00
2018-04-26T03:26:06.393Z,0.00
2018-04-26T03:27:06.553Z,0.00
2018-04-26T03:28:06.709Z,0.00
2018-04-26T03:29:06.885Z,0.00
2018-04-26T03:30:07.049Z,0.00
2018-04-26T03:31:07.295Z,0.00
2018-04-26T03:32:07.381Z,4.00
2018-04-26T03:33:07.548Z,4.00
2018-04-26T03:34:07.715Z,0.00
2018-04-26T03:35:07.880Z,4.00
2018-04-26T03:36:08.043Z,4.00
2018-04-26T03:37:08.208Z,4.00
2018-04-26T03:38:08.373Z,4.00
2018-04-26T03:39:08.530Z,4.00
2018-04-26T03:40:08.694Z,8.00
2018-04-26T03:41:08.860Z,8.00
2018-04-26T03:42:09.030Z,8.00
2018-04-26T03:43:09.202Z,8.00
2018-04-26T03:44:09.365Z,8.00
2018-04-26T03:45:09.536Z,12.00
2018-04-26T03:46:09.695Z,16.00
2018-04-26T03:47:09.855Z,16.00
2018-04-26T03:48:10.023Z,20.00
2018-04-26T03:49:10.188Z,20.00
2018-04-26T03:50:10.359Z,24.00
2018-04-26T03:51:10.528Z,32.00
2018-04-26T03:52:10.694Z,36.00
2018-04-26T03:53:10.865Z,40.00
2018-04-26T03:54:11.034Z,48.00
2018-04-26T03:55:11.194Z,52.00
2018-04-26T03:56:11.355Z,56.00
2018-04-26T03:57:11.520Z,68.00
2018-04-26T03:58:11.680Z,76.00
2018-04-26T03:59:11.845Z,84.00
2018-04-26T04:00:12.005Z,92.00
2018-04-26T04:01:12.169Z,108.00
2018-04-26T04:02:12.335Z,120.00
2018-04-26T04:03:12.499Z,128.00
2018-04-26T04:04:12.666Z,140.00
2018-04-26T04:05:12.822Z,156.00
2018-04-26T04:06:12.985Z,172.00
2018-04-26T04:07:13.139Z,188.00
2018-04-26T04:08:13.298Z,204.00
2018-04-26T04:09:13.465Z,220.00
2018-04-26T04:10:13.636Z,240.00
2018-04-26T04:11:13.797Z,256.00
2018-04-26T04:12:13.958Z,280.00
2018-04-26T04:13:14.130Z,300.00
2018-04-26T04:14:14.295Z,324.00
2018-04-26T04:15:14.476Z,348.00
2018-04-26T04:16:14.637Z,372.00
2018-04-26T04:17:14.802Z,396.00
2018-04-26T04:18:14.967Z,424.00
2018-04-26T04:19:15.134Z,448.00
2018-04-26T04:20:15.299Z,476.00
2018-04-26T04:21:15.467Z,508.00
2018-04-26T04:22:15.629Z,532.00
2018-04-26T04:23:15.795Z,564.00
2018-04-26T04:24:15.957Z,596.00
2018-04-26T04:25:16.123Z,628.00
2018-04-26T04:26:16.287Z,660.00
2018-04-26T04:27:16.455Z,688.00
2018-04-26T04:28:16.611Z,720.00
2018-04-26T04:29:16.776Z,752.00
2018-04-26T04:30:16.942Z,788.00
2018-04-26T04:31:17.106Z,816.00
2018-04-26T04:32:17.269Z,848.00
2018-04-26T04:33:17.439Z,872.00
2018-04-26T04:34:17.595Z,896.00
2018-04-26T04:35:17.837Z,916.00
2018-04-26T04:36:17.933Z,936.00
2018-04-26T04:37:18.095Z,968.00
2018-04-26T04:38:18.261Z,1040.00
2018-04-26T04:39:18.429Z,1076.00
2018-04-26T04:40:18.589Z,1104.00
2018-04-26T04:41:18.755Z,1108.00
2018-04-26T04:42:18.913Z,1132.00
2018-04-26T04:43:19.083Z,1164.00
2018-04-26T04:44:19.246Z,1148.00
2018-04-26T04:45:19.489Z,1208.00
2018-04-26T04:46:19.576Z,1248.00
2018-04-26T04:47:19.738Z,1280.00
2018-04-26T04:48:19.900Z,1232.00
2018-04-26T04:49:20.072Z,1288.00
2018-04-26T04:50:20.231Z,1400.00
2018-04-26T04:51:20.396Z,1440.00
2018-04-26T04:52:20.561Z,1464.00
2018-04-26T04:53:20.728Z,1508.00
2018-04-26T04:54:20.882Z,1540.00
2018-04-26T04:55:21.042Z,1564.00
2018-04-26T04:56:21.204Z,1584.00
2018-04-26T04:57:21.364Z,1612.00
2018-04-26T04:58:21.526Z,1672.00
2018-04-26T04:59:21.695Z,1796.00
2018-04-26T05:00:21.863Z,1908.00
2018-04-26T05:01:22.026Z,2116.00
2018-04-26T05:02:22.189Z,2340.00
2018-04-26T05:03:22.356Z,2356.00
2018-04-26T05:04:22.513Z,2204.00
2018-04-26T05:05:22.680Z,2032.00
2018-04-26T05:06:22.840Z,2016.00
2018-04-26T05:07:23.056Z,1872.00
2018-04-26T05:08:23.170Z,1932.00
2018-04-26T05:09:23.335Z,1936.00
2018-04-26T05:10:23.508Z,1992.00
2018-04-26T05:11:23.668Z,2108.00
2018-04-26T05:12:23.834Z,2092.00
2018-04-26T05:13:23.993Z,2324.00
2018-04-26T05:14:24.168Z,2208.00
2018-04-26T05:15:24.335Z,2152.00
2018-04-26T05:16:24.508Z,2072.00
2018-04-26T05:17:24.665Z,1980.00
2018-04-26T05:18:24.833Z,1968.00
2018-04-26T05:19:25.034Z,2076.00
2018-04-26T05:20:25.201Z,2440.00
2018-04-26T05:21:25.368Z,2484.00
2018-04-26T05:22:25.535Z,2216.00
2018-04-26T05:23:25.702Z,2248.00
2018-04-26T05:24:25.864Z,2452.00
2018-04-26T05:25:26.039Z,2620.00
2018-04-26T05:26:26.206Z,2212.00
2018-04-26T05:27:26.369Z,2332.00
2018-04-26T05:28:26.535Z,2168.00
2018-04-26T05:29:26.704Z,2392.00
2018-04-26T05:30:26.875Z,2692.00
2018-04-26T05:31:27.045Z,2676.00
2018-04-26T05:32:27.212Z,2656.00
2018-04-26T05:33:27.390Z,2656.00
2018-04-26T05:34:27.550Z,2668.00
2018-04-26T05:35:27.721Z,2680.00
2018-04-26T05:36:27.890Z,2708.00
2018-04-26T05:37:28.055Z,2716.00
2018-04-26T05:38:28.221Z,2684.00
2018-04-26T05:39:28.385Z,2660.00
2018-04-26T05:40:28.572Z,2776.00
2018-04-26T05:41:28.715Z,2540.00
2018-04-26T05:42:28.880Z,2912.00
2018-04-26T05:43:29.043Z,2904.00
2018-04-26T05:44:29.230Z,2480.00
2018-04-26T05:45:29.389Z,3072.00
2018-04-26T05:46:29.561Z,3112.00
2018-04-26T05:47:29.725Z,3268.00
2018-04-26T05:48:29.895Z,3616.00
2018-04-26T05:49:30.057Z,3616.00
2018-04-26T05:50:30.218Z,3560.00
2018-04-26T05:51:30.386Z,3752.00
2018-04-26T05:52:30.553Z,3568.00
2018-04-26T05:53:30.713Z,3452.00
2018-04-26T05:54:30.889Z,3352.00
2018-04-26T05:55:31.046Z,3432.00
2018-04-26T05:56:31.220Z,3824.00
2018-04-26T05:57:31.387Z,3928.00
2018-04-26T05:58:31.551Z,4152.00
2018-04-26T05:59:31.721Z,4184.00
2018-04-26T06:00:31.890Z,3872.00
2018-04-26T06:01:32.055Z,3696.00
2018-04-26T06:02:32.226Z,3844.00
2018-04-26T06:03:32.483Z,4704.00
2018-04-26T06:04:32.559Z,4928.00
2018-04-26T06:05:32.738Z,4352.00
2018-04-26T06:06:32.897Z,3896.00
2018-04-26T06:07:33.068Z,3916.00
2018-04-26T06:08:33.235Z,4192.00
2018-04-26T06:09:33.402Z,5456.00
2018-04-26T06:10:33.566Z,5432.00
2018-04-26T06:11:33.738Z,5752.00
2018-04-26T06:12:33.909Z,5920.00
2018-04-26T06:13:34.071Z,6200.00
2018-04-26T06:14:34.237Z,5160.00
2018-04-26T06:15:34.401Z,4956.00
2018-04-26T06:16:34.570Z,4976.00
2018-04-26T06:17:34.738Z,5124.00
2018-04-26T06:18:34.910Z,4920.00
2018-04-26T06:19:35.078Z,4664.00
2018-04-26T06:20:35.242Z,4624.00
2018-04-26T06:21:35.406Z,4656.00
2018-04-26T06:22:35.574Z,4900.00
2018-04-26T06:23:35.741Z,4700.00
2018-04-26T06:24:35.907Z,4644.00
2018-04-26T06:25:36.079Z,4552.00
2018-04-26T06:26:36.240Z,4344.00
2018-04-26T06:27:36.405Z,3584.00
2018-04-26T06:28:36.574Z,3632.00
2018-04-26T06:29:36.741Z,4384.00
2018-04-26T06:30:36.918Z,5540.00
2018-04-26T06:31:37.083Z,7384.00
2018-04-26T06:32:37.247Z,7680.00
2018-04-26T06:33:37.422Z,6508.00
2018-04-26T06:34:37.588Z,7220.00
2018-04-26T06:35:37.757Z,6568.00
2018-04-26T06:36:37.926Z,7600.00
2018-04-26T06:37:38.088Z,6448.00
2018-04-26T06:38:38.260Z,5720.00
2018-04-26T06:41:11.054Z,8360.00
2018-04-26T06:42:10.754Z,6776.00
2018-04-26T06:43:10.889Z,6024.00
2018-04-26T06:44:11.054Z,7056.00
2018-04-26T06:45:11.221Z,8112.00
2018-04-26T06:46:11.390Z,7628.00
2018-04-26T06:47:11.551Z,6516.00
2018-04-26T06:48:11.721Z,7228.00
2018-04-26T06:49:11.894Z,7732.00
2018-04-26T06:50:12.066Z,7392.00
2018-04-26T06:51:12.229Z,7244.00
2018-04-26T06:52:12.394Z,6804.00
2018-04-26T06:53:12.558Z,6100.00
2018-04-26T06:54:12.729Z,3960.00
2018-04-26T06:55:12.894Z,3968.00
2018-04-26T06:56:13.067Z,5464.00
2018-04-26T06:57:13.237Z,5340.00
2018-04-26T06:58:13.405Z,5660.00
2018-04-26T06:59:13.571Z,5004.00
2018-04-26T07:00:13.739Z,5100.00
2018-04-26T07:01:13.911Z,5012.00
2018-04-26T07:02:14.074Z,4368.00
2018-04-26T07:03:14.254Z,5188.00
2018-04-26T07:04:14.416Z,5724.00
2018-04-26T07:05:14.581Z,5176.00
2018-04-26T07:06:14.750Z,3708.00
2018-04-26T07:07:14.928Z,4820.00
2018-04-26T07:08:15.083Z,5432.00
2018-04-26T07:09:15.253Z,5520.00
2018-04-26T07:10:15.414Z,5644.00
2018-04-26T07:11:15.595Z,5704.00
2018-04-26T07:12:15.756Z,5160.00
2018-04-26T07:13:15.923Z,5064.00
2018-04-26T07:14:16.093Z,5780.00
2018-04-26T07:15:16.260Z,7332.00
2018-04-26T07:16:16.423Z,8844.00
2018-04-26T07:17:16.588Z,8604.00
2018-04-26T07:18:16.755Z,8996.00
2018-04-26T07:19:16.918Z,10296.00
2018-04-26T07:20:17.093Z,8624.00
2018-04-26T07:21:17.251Z,7788.00
2018-04-26T07:22:17.418Z,5608.00
2018-04-26T07:23:17.588Z,5828.00
2018-04-26T07:24:17.760Z,8024.00
2018-04-26T07:25:17.923Z,6912.00
2018-04-26T07:26:18.087Z,5808.00
2018-04-26T07:27:18.252Z,7916.00
2018-04-26T07:28:18.419Z,7364.00
2018-04-26T07:29:18.590Z,6096.00
2018-04-26T07:30:18.757Z,7168.00
2018-04-26T07:31:18.931Z,7116.00
2018-04-26T07:32:19.101Z,7808.00
2018-04-26T07:33:19.261Z,8840.00
2018-04-26T07:34:19.428Z,9804.00
2018-04-26T07:35:19.598Z,10668.00
2018-04-26T07:36:19.767Z,13240.00
2018-04-26T07:38:53.563Z,5996.00
2018-04-26T07:39:53.224Z,5580.00
2018-04-26T07:40:53.399Z,5524.00
2018-04-26T07:41:53.756Z,7420.00
2018-04-26T07:42:53.935Z,9596.00
2018-04-26T07:43:54.080Z,10916.00
2018-04-26T07:44:54.122Z,9420.00
2018-04-26T07:45:54.409Z,9596.00
2018-04-26T07:46:54.658Z,11736.00
2018-04-26T07:47:54.939Z,12968.00
2018-04-26T07:48:55.655Z,11364.00
2018-04-26T07:49:54.991Z,8500.00
2018-04-26T07:50:56.149Z,7304.00
2018-04-26T07:51:55.499Z,7824.00
2018-04-26T07:52:55.610Z,11124.00
2018-04-26T07:53:55.740Z,8652.00
2018-04-26T07:54:56.030Z,7440.00
2018-04-26T07:55:55.957Z,9368.00
2018-04-26T07:56:55.931Z,10340.00
2018-04-26T07:57:56.021Z,8064.00
2018-04-26T07:58:56.186Z,8724.00
2018-04-26T07:59:56.352Z,11472.00
2018-04-26T08:00:56.530Z,9576.00
2018-04-26T08:01:56.893Z,9204.00
2018-04-26T08:02:57.120Z,10760.00
2018-04-26T08:03:57.125Z,7616.00
2018-04-26T08:04:57.351Z,10168.00
2018-04-26T08:05:57.574Z,11528.00
2018-04-26T08:06:57.591Z,13576.00
2018-04-26T08:07:57.782Z,10168.00
2018-04-26T08:08:58.144Z,10068.00
2018-04-26T08:09:58.072Z,9540.00
2018-04-26T08:10:58.276Z,10288.00
2018-04-26T08:11:58.565Z,10076.00
2018-04-26T08:12:58.812Z,11648.00
2018-04-26T08:13:58.913Z,11788.00
2018-04-26T08:14:58.900Z,9016.00
2018-04-26T08:15:59.249Z,11808.00
2018-04-26T08:16:59.444Z,16608.00
2018-04-26T08:17:59.636Z,16128.00
2018-04-26T08:18:59.667Z,10280.00
2018-04-26T08:19:59.809Z,8980.00
2018-04-26T08:21:00.140Z,7348.00
2018-04-26T08:22:00.243Z,6728.00
2018-04-26T08:23:00.304Z,9512.00
2018-04-26T08:24:00.640Z,11408.00
2018-04-26T08:25:00.655Z,9088.00
2018-04-26T08:26:00.860Z,11628.00
2018-04-26T08:27:00.922Z,11312.00
2018-04-26T08:28:01.271Z,14928.00
2018-04-26T08:29:01.437Z,14764.00
2018-04-26T08:30:01.523Z,13064.00
2018-04-26T08:31:01.640Z,11572.00
2018-04-26T08:32:01.809Z,12824.00
2018-04-26T08:33:01.988Z,13328.00
2018-04-26T08:34:02.191Z,13512.00
2018-04-26T08:35:02.199Z,13588.00
2018-04-26T08:36:02.416Z,15424.00
2018-04-26T08:37:02.638Z,14032.00
2018-04-26T08:38:02.676Z,15072.00
2018-04-26T08:39:03.643Z,9416.00
2018-04-26T08:40:02.960Z,16672.00
2018-04-26T08:41:03.274Z,8072.00
2018-04-26T08:42:03.512Z,15584.00
2018-04-26T08:43:03.738Z,15744.00
2018-04-26T08:44:03.737Z,17344.00
2018-04-26T08:45:04.059Z,19712.00
2018-04-26T08:46:04.332Z,21632.00
2018-04-26T08:47:04.317Z,21216.00
2018-04-26T08:48:04.494Z,21728.00
2018-04-26T08:49:04.885Z,21152.00
2018-04-26T08:50:04.959Z,15048.00
2018-04-26T08:51:05.230Z,22656.00
2018-04-26T08:52:05.388Z,21376.00
2018-04-26T08:53:05.592Z,23296.00
2018-04-26T08:54:05.729Z,8984.00
2018-04-26T08:55:05.805Z,23648.00
2018-04-26T08:56:06.034Z,11632.00
2018-04-26T08:57:06.104Z,22208.00
2018-04-26T08:58:06.418Z,21504.00
2018-04-26T08:59:06.589Z,22080.00
2018-04-26T09:00:06.801Z,23168.00
2018-04-26T09:01:06.875Z,23008.00
2018-04-26T09:02:07.162Z,23232.00
2018-04-26T09:03:07.212Z,23616.00
2018-04-26T09:04:07.552Z,24704.00
2018-04-26T09:06:40.731Z,28128.00
2018-04-26T09:07:40.884Z,27904.00
2018-04-26T09:08:41.054Z,28896.00
2018-04-26T09:09:41.227Z,30432.00
2018-04-26T09:10:41.422Z,29664.00
2018-04-26T09:11:41.591Z,32352.00
2018-04-26T09:12:41.764Z,34240.00
2018-04-26T09:13:41.938Z,35648.00
2018-04-26T09:14:42.112Z,40000.00
2018-04-26T09:15:42.298Z,30624.00
2018-04-26T09:16:42.464Z,42304.00
2018-04-26T09:17:42.645Z,26144.00
2018-04-26T09:18:42.813Z,11656.00
2018-04-26T09:19:43.028Z,18336.00
2018-04-26T09:20:43.193Z,16180.00
2018-04-26T09:21:43.369Z,15780.00
2018-04-26T09:22:43.540Z,15628.00
2018-04-26T09:23:43.715Z,13868.00
2018-04-26T09:24:43.889Z,9304.00
2018-04-26T09:25:44.073Z,9820.00
2018-04-26T09:26:44.249Z,12704.00
2018-04-26T09:27:44.408Z,13772.00
2018-04-26T09:28:44.588Z,36000.00
2018-04-26T09:29:44.766Z,40928.00
2018-04-26T09:30:44.938Z,39712.00
2018-04-26T09:31:45.110Z,39680.00
2018-04-26T09:32:45.284Z,15484.00
2018-04-26T09:33:45.540Z,23456.00
2018-04-26T09:34:45.643Z,43840.00
2018-04-26T09:35:45.824Z,14784.00
2018-04-26T09:36:45.996Z,35040.00
2018-04-26T09:37:46.173Z,55584.00
2018-04-26T09:38:46.421Z,50048.00
2018-04-26T09:39:46.525Z,50464.00
2018-04-26T09:40:46.692Z,49344.00
2018-04-26T09:41:46.866Z,52224.00
2018-04-26T09:42:47.036Z,20192.00
2018-04-26T09:43:47.217Z,43392.00
2018-04-26T09:44:47.388Z,23008.00
2018-04-26T09:45:47.566Z,21344.00
2018-04-26T09:46:47.745Z,29888.00
2018-04-26T09:47:47.918Z,16376.00
2018-04-26T09:48:48.095Z,18208.00
2018-04-26T09:49:48.271Z,35872.00
2018-04-26T09:50:48.453Z,14596.00
2018-04-26T09:51:48.624Z,7500.00
2018-04-26T09:52:48.815Z,5576.00
2018-04-26T09:53:48.996Z,5008.00
2018-04-26T09:54:49.170Z,3944.00
2018-04-26T09:55:49.347Z,3380.00
2018-04-26T09:56:49.523Z,2868.00
2018-04-26T09:57:49.700Z,2936.00
2018-04-26T09:58:49.881Z,4224.00
2018-04-26T09:59:50.062Z,6464.00
2018-04-26T10:00:50.241Z,8204.00
2018-04-26T10:01:50.537Z,9304.00
2018-04-26T10:02:50.589Z,17856.00
2018-04-26T10:03:50.757Z,31232.00
2018-04-26T10:04:50.934Z,38112.00
2018-04-26T10:05:51.103Z,34176.00
2018-04-26T10:06:51.276Z,13624.00
2018-04-26T10:07:51.449Z,10740.00
2018-04-26T10:08:51.645Z,9612.00
2018-04-26T10:09:51.791Z,8832.00
2018-04-26T10:10:51.968Z,8144.00
2018-04-26T10:11:52.137Z,4776.00
2018-04-26T10:12:52.308Z,3432.00
2018-04-26T10:13:52.487Z,2136.00
2018-04-26T10:14:52.650Z,1756.00
2018-04-26T10:15:52.818Z,2096.00
2018-04-26T10:16:53.002Z,2668.00
2018-04-26T10:17:53.158Z,3644.00
2018-04-26T10:18:53.340Z,5020.00
2018-04-26T10:19:53.508Z,6000.00
2018-04-26T10:20:53.678Z,7260.00
2018-04-26T10:21:53.852Z,7900.00
2018-04-26T10:22:54.020Z,9460.00
2018-04-26T10:23:54.194Z,12732.00
2018-04-26T10:24:54.361Z,14260.00
2018-04-26T10:25:54.523Z,18816.00
2018-04-26T10:26:54.697Z,19968.00
2018-04-26T10:27:54.866Z,27360.00
2018-04-26T10:28:55.039Z,25504.00
2018-04-26T10:29:55.210Z,24288.00
2018-04-26T10:30:55.377Z,33472.00
2018-04-26T10:31:55.557Z,17312.00
2018-04-26T10:32:55.727Z,11164.00
2018-04-26T10:33:55.896Z,11312.00
2018-04-26T10:34:56.069Z,17856.00
2018-04-26T10:35:56.230Z,33216.00
2018-04-26T10:36:56.401Z,38080.00
2018-04-26T10:37:57.197Z,31968.00
2018-04-26T10:38:56.747Z,25120.00
2018-04-26T10:39:56.925Z,16032.00
2018-04-26T10:40:57.088Z,54240.00
2018-04-26T10:41:57.266Z,11232.00
2018-04-26T10:42:57.439Z,9200.00
2018-04-26T10:43:57.601Z,12080.00
2018-04-26T10:44:57.772Z,121408.00
2018-04-26T10:45:57.939Z,95104.00
2018-04-26T10:46:58.109Z,57664.00
2018-04-26T10:47:58.277Z,15204.00
2018-04-26T10:48:58.446Z,9864.00
2018-04-26T10:49:58.622Z,7864.00
2018-04-26T10:50:58.788Z,6800.00
2018-04-26T10:51:58.965Z,8108.00
2018-04-26T10:52:59.206Z,13532.00
2018-04-26T10:53:59.308Z,37536.00
2018-04-26T10:54:59.480Z,22592.00
2018-04-26T10:55:59.656Z,16204.00
2018-04-26T10:56:59.833Z,15680.00
2018-04-26T10:58:00.008Z,18784.00
2018-04-26T10:59:00.175Z,13872.00
2018-04-26T11:00:00.365Z,9344.00
2018-04-26T11:01:00.529Z,8016.00
2018-04-26T11:02:00.705Z,8888.00
2018-04-26T11:03:00.891Z,11024.00
2018-04-26T11:04:01.056Z,12840.00
2018-04-26T11:05:01.223Z,15268.00
2018-04-26T11:06:01.397Z,20480.00
2018-04-26T11:07:01.570Z,71488.00
2018-04-26T11:08:01.735Z,22336.00
2018-04-26T11:09:01.908Z,19264.00
2018-04-26T11:10:02.075Z,129440.00
2018-04-26T11:11:02.250Z,134272.00
2018-04-26T11:12:02.419Z,134304.00
2018-04-26T11:13:02.590Z,131168.00
2018-04-26T11:14:02.755Z,129824.00
2018-04-26T11:15:02.934Z,127808.00
2018-04-26T11:16:03.099Z,128096.00
2018-04-26T11:17:03.278Z,124128.00
2018-04-26T11:18:03.452Z,127616.00
2018-04-26T11:19:03.623Z,126720.00
2018-04-26T11:20:03.799Z,119968.00
2018-04-26T11:21:03.965Z,119488.00
2018-04-26T11:22:04.140Z,120128.00
2018-04-26T11:23:04.314Z,125376.00
2018-04-26T11:24:04.536Z,128800.00
2018-04-26T11:25:04.685Z,127904.00
2018-04-26T11:26:04.860Z,125056.00
2018-04-26T11:27:05.036Z,124224.00
2018-04-26T11:28:05.214Z,124992.00
2018-04-26T11:29:05.404Z,130816.00
2018-04-26T11:30:05.669Z,51808.00
2018-04-26T11:31:05.918Z,89056.00
2018-04-26T11:32:06.004Z,27008.00
2018-04-26T11:33:06.196Z,142912.00
2018-04-26T11:34:06.383Z,18464.00
2018-04-26T11:35:06.563Z,81856.00
2018-04-26T11:36:06.763Z,134784.00
2018-04-26T11:37:06.936Z,136448.00
2018-04-26T11:38:07.121Z,137056.00
2018-04-26T11:39:07.307Z,139296.00
2018-04-26T11:40:07.538Z,12896.00
2018-04-26T11:41:07.672Z,32160.00
2018-04-26T11:42:07.861Z,142208.00
2018-04-26T11:43:08.054Z,135680.00
2018-04-26T11:44:08.247Z,23584.00
2018-04-26T11:45:08.428Z,13484.00
2018-04-26T11:47:00.692Z,124288.00
2018-04-26T11:48:00.882Z,136832.00
2018-04-26T11:49:01.066Z,133952.00
2018-04-26T11:50:01.251Z,129472.00
2018-04-26T11:51:01.427Z,131616.00
2018-04-26T11:52:01.612Z,136064.00
2018-04-26T11:53:01.801Z,134144.00
2018-04-26T11:54:01.981Z,14252.00
2018-04-26T11:55:02.257Z,139360.00
2018-04-26T11:56:02.289Z,134368.00
2018-04-26T11:57:02.477Z,133536.00
2018-04-26T11:58:02.663Z,125344.00
2018-04-26T11:59:02.851Z,114784.00
2018-04-26T12:00:03.035Z,20512.00
2018-04-26T12:01:03.216Z,17984.00
2018-04-26T12:02:03.433Z,15728.00
2018-04-26T12:03:03.619Z,21376.00
2018-04-26T12:04:03.873Z,14756.00
2018-04-26T12:05:03.987Z,11172.00
2018-04-26T12:06:04.172Z,8916.00
2018-04-26T12:07:04.355Z,7220.00
2018-04-26T12:08:04.532Z,6048.00
2018-04-26T12:09:04.712Z,4996.00
2018-04-26T12:10:04.897Z,4072.00
2018-04-26T12:11:05.073Z,3244.00
2018-04-26T12:12:05.247Z,2804.00
2018-04-26T12:13:05.421Z,3352.00
2018-04-26T12:14:05.602Z,7460.00
2018-04-26T12:15:05.777Z,18400.00
2018-04-26T12:16:05.945Z,35968.00
2018-04-26T12:17:06.131Z,132896.00
2018-04-26T12:18:06.304Z,132896.00
2018-04-26T12:19:06.481Z,107776.00
2018-04-26T12:20:06.653Z,44416.00
2018-04-26T12:21:06.836Z,50112.00
2018-04-26T12:22:07.014Z,50400.00
2018-04-26T12:23:07.183Z,99744.00
2018-04-26T12:24:07.383Z,25760.00
2018-04-26T12:25:07.537Z,29312.00
2018-04-26T12:26:07.710Z,23264.00
2018-04-26T12:27:07.886Z,17504.00
2018-04-26T12:28:08.059Z,29504.00